Time;durP1;ratioP1;P1;durP2;ratioP2;P2;SDS_P1;SDS_P2;PMS_P1;PMS_P2;Temp;Humidity;BMP_temperature;BMP_pressure;BME280_temperature;BME280_humidity;BME280_pressure;Samples;Min_cycle;Max_cycle;Signal;HPM_P1;HPM_P2
2022/02/20 07:27:10;;;;;;;6.8;3.8;;;;;;;5.86;58.15332;939.0507;;;;
2022/02/20 07:29:35;;;;;;;3.3;2;;;;;;;6.22;57.13965;939.1501;;;;
2022/02/20 07:32:16;;;;;;;4.4;2;;;;;;;6.38;58.17871;939.0864;;;;
2022/02/20 07:35:40;;;;;;;6.4;4.4;;;;;;;6.45;57.96094;939.139;;;;
2022/02/20 07:38:11;;;;;;;5;2.5;;;;;;;6.41;56.9502;939.0496;;;;
2022/02/20 07:40:41;;;;;;;6.8;2.5;;;;;;;6.42;56.62305;939.1406;;;;
2022/02/20 07:43:13;;;;;;;3.4;1.8;;;;;;;6.63;56.62891;939.179;;;;
2022/02/20 07:45:38;;;;;;;3.1;2;;;;;;;6.89;55.87109;939.1555;;;;
2022/02/20 07:48:09;;;;;;;7.1;4.1;;;;;;;7.07;56.38086;939.2561;;;;
2022/02/20 07:50:39;;;;;;;5.5;4.2;;;;;;;7.04;57.02246;939.142;;;;
2022/02/20 07:53:04;;;;;;;8.2;2.7;;;;;;;6.89;56.32324;939.2243;;;;
2022/02/20 07:55:33;;;;;;;6.2;1.8;;;;;;;6.78;56.4668;939.2775;;;;
2022/02/20 07:57:59;;;;;;;3.1;1.9;;;;;;;6.84;57.68652;939.2043;;;;
2022/02/20 08:00:30;;;;;;;5.7;2.8;;;;;;;6.95;57.26074;939.1476;;;;
2022/02/20 08:02:53;;;;;;;6.2;3.2;;;;;;;7.3;58.45117;939.1792;;;;
2022/02/20 08:05:19;;;;;;;44.6;25.3;;;;;;;7.49;56.79883;939.2196;;;;
2022/02/20 08:07:49;;;;;;;38.2;22.5;;;;;;;7.58;56.07422;939.358;;;;
2022/02/20 08:10:15;;;;;;;10.2;7.2;;;;;;;8.01;54.30273;939.2744;;;;
2022/02/20 08:12:57;;;;;;;2.8;1.8;;;;;;;8.42;52.59375;939.2626;;;;
2022/02/20 08:15:19;;;;;;;4;2.2;;;;;;;9.11;51.93848;939.3536;;;;
2022/02/20 08:17:45;;;;;;;3.7;1.8;;;;;;;9.51;50.33496;939.1864;;;;
2022/02/20 08:20:17;;;;;;;2.8;2.1;;;;;;;8.87;51.78418;939.3293;;;;
2022/02/20 08:22:50;;;;;;;4.4;2.2;;;;;;;9.1;53.47363;939.3757;;;;
2022/02/20 08:27:06;;;;;;;2.2;1.9;;;;;;;9.19;52.6748;939.4883;;;;
2022/02/20 08:29:40;;;;;;;2.9;1.7;;;;;;;8.73;52.16504;939.4362;;;;
2022/02/20 08:32:11;;;;;;;2.1;1.8;;;;;;;8.79;52.97949;939.5897;;;;
2022/02/20 08:34:36;;;;;;;4.5;1.6;;;;;;;9.15;51.66992;939.5576;;;;
2022/02/20 08:37:02;;;;;;;3.9;1.6;;;;;;;9.46;51.44434;939.5783;;;;
2022/02/20 08:39:30;;;;;;;2.4;0.6;;;;;;;9.35;49.82617;939.407;;;;
2022/02/20 08:41:55;;;;;;;1.7;0.4;;;;;;;9.44;47.96875;939.5414;;;;
2022/02/20 08:44:20;;;;;;;0.4;0.2;;;;;;;9.65;48.69824;939.5067;;;;
2022/02/20 08:46:46;;;;;;;0.2;0.2;;;;;;;9.72;48.12598;939.4632;;;;
2022/02/20 08:49:11;;;;;;;0.7;0.4;;;;;;;9.71;48.10156;939.4241;;;;
2022/02/20 08:51:38;;;;;;;2.2;0.2;;;;;;;10.76;45.95703;939.5449;;;;
2022/02/20 08:54:04;;;;;;;0.7;0.3;;;;;;;10.71;44.87793;939.365;;;;
2022/02/20 08:56:32;;;;;;;2;0.4;;;;;;;10.52;45.45117;939.4908;;;;
2022/02/20 08:58:57;;;;;;;1.8;0.4;;;;;;;10.4;45.87305;939.4112;;;;
2022/02/20 09:01:29;;;;;;;1;0.6;;;;;;;10.45;45.44434;939.4805;;;;
2022/02/20 09:04:05;;;;;;;0.4;0.2;;;;;;;10.15;46.2793;939.4927;;;;
2022/02/20 09:06:30;;;;;;;2.7;0.5;;;;;;;9.78;47.6875;939.2739;;;;
2022/02/20 09:08:57;;;;;;;1;0.3;;;;;;;10.03;47.15723;939.3066;;;;
2022/02/20 09:11:23;;;;;;;1.5;0.3;;;;;;;10.01;46.94922;939.3103;;;;
2022/02/20 09:13:47;;;;;;;2.6;0.4;;;;;;;9.91;47.72461;939.2204;;;;
2022/02/20 09:16:27;;;;;;;0.4;0.3;;;;;;;9.79;47.30176;939.4443;;;;
2022/02/20 09:19:03;;;;;;;1.4;0.7;;;;;;;9.66;48.15234;939.2341;;;;
2022/02/20 09:21:25;;;;;;;0.4;0.2;;;;;;;9.86;46.73828;939.2148;;;;
2022/02/20 09:23:58;;;;;;;1.1;0.6;;;;;;;9.85;48.28809;939.1956;;;;
2022/02/20 11:21:40;;;;;;;0.6;0.6;;;;;;;18.01;30.76758;938.0214;;;;
2022/02/20 11:24:08;;;;;;;0.3;0.3;;;;;;;17.59;30.65723;937.8883;;;;
2022/02/20 11:26:39;;;;;;;0.8;0.8;;;;;;;17.72;29.40039;937.9727;;;;
2022/02/20 11:29:09;;;;;;;1.1;0.5;;;;;;;18.35;28.49023;937.8934;;;;
2022/02/20 11:31:41;;;;;;;0.8;0.4;;;;;;;17.92;28.70605;937.8716;;;;
2022/02/20 11:34:09;;;;;;;30.6;24;;;;;;;19.11;28.00391;937.8253;;;;
2022/02/20 11:36:41;;;;;;;1.2;0.5;;;;;;;17.96;28.87109;937.7389;;;;
2022/02/20 11:39:09;;;;;;;1.5;0.7;;;;;;;18.57;28.20117;937.7061;;;;
2022/02/20 11:41:34;;;;;;;3.1;2.8;;;;;;;19.52;27.50488;937.6566;;;;
2022/02/20 11:44:00;;;;;;;1.2;1.1;;;;;;;19.94;25.4541;937.6536;;;;
2022/02/20 11:46:26;;;;;;;2.6;2.4;;;;;;;19.7;26.08203;937.8729;;;;
2022/02/20 11:48:50;;;;;;;6.4;5.9;;;;;;;19.88;26.31445;937.7569;;;;
2022/02/20 11:51:17;;;;;;;1.8;0.9;;;;;;;20.22;25.5293;937.7656;;;;
2022/02/20 11:53:47;;;;;;;0.7;0.5;;;;;;;20.2;25.9834;937.8453;;;;
2022/02/20 11:56:17;;;;;;;0.5;0.3;;;;;;;19.5;26.78125;937.8105;;;;
2022/02/20 11:58:47;;;;;;;1.5;0.4;;;;;;;19.56;26.37695;937.8156;;;;
2022/02/20 12:01:22;;;;;;;1.1;0.3;;;;;;;19.92;25.97852;937.7914;;;;
2022/02/20 12:03:47;;;;;;;2.4;0.4;;;;;;;19.27;26.04492;937.7506;;;;
2022/02/20 12:06:14;;;;;;;0.7;0.2;;;;;;;17.52;28.58691;937.764;;;;
2022/02/20 12:08:42;;;;;;;2.1;0.9;;;;;;;19.58;27.22852;937.6449;;;;
2022/02/20 12:11:08;;;;;;;2.8;0.5;;;;;;;19.15;27.03906;937.5444;;;;
2022/02/20 12:13:33;;;;;;;0.9;0.4;;;;;;;19.93;25.59473;937.5544;;;;
2022/02/20 12:16:14;;;;;;;1.7;0.6;;;;;;;19.13;26.38672;937.468;;;;
2022/02/20 12:18:41;;;;;;;0.1;0.1;;;;;;;19.01;27.41504;937.39;;;;
2022/02/20 12:21:11;;;;;;;0.7;0.2;;;;;;;20.77;25.11719;937.3256;;;;
2022/02/20 12:23:36;;;;;;;0.2;0.2;;;;;;;20.72;24.48242;937.353;;;;
2022/02/20 12:26:08;;;;;;;1.1;0.2;;;;;;;20.68;24.93652;937.3155;;;;
2022/02/20 12:28:34;;;;;;;0.2;0.2;;;;;;;20.78;24.10059;937.2532;;;;
2022/02/20 12:31:23;;;;;;;0.5;0.2;;;;;;;20.73;25.16211;937.3219;;;;
2022/02/20 12:33:48;;;;;;;0.2;0.2;;;;;;;19.33;26.26953;937.2961;;;;
2022/02/20 12:36:23;;;;;;;0.2;0.2;;;;;;;21.43;24.24121;937.2885;;;;
2022/02/20 12:38:44;;;;;;;0.3;0.2;;;;;;;19.8;25.29492;937.2111;;;;
2022/02/20 12:41:12;;;;;;;0.3;0.3;;;;;;;20.17;26.24902;937.062;;;;
2022/02/20 12:43:39;;;;;;;0.4;0.2;;;;;;;19.2;25.73828;937.0165;;;;
2022/02/20 12:46:05;;;;;;;0.4;0.3;;;;;;;19.26;26.0918;937.1066;;;;
2022/02/20 12:48:31;;;;;;;0.3;0.2;;;;;;;19.45;25.51953;936.9817;;;;
2022/02/20 12:50:58;;;;;;;0.3;0.2;;;;;;;20.37;24.94238;937.0634;;;;
2022/02/20 12:53:27;;;;;;;0.1;0.1;;;;;;;20.63;25.38965;936.9908;;;;
2022/02/20 12:55:57;;;;;;;0.2;0.1;;;;;;;20.37;24.55664;937.066;;;;
2022/02/20 12:58:28;;;;;;;3.1;0.6;;;;;;;21.06;24.26758;937.0181;;;;
2022/02/20 13:00:55;;;;;;;0.1;0.1;;;;;;;20.82;23.55273;937.0796;;;;
2022/02/20 13:03:24;;;;;;;0.2;0.2;;;;;;;21.78;23.55762;937.2411;;;;
2022/02/20 13:05:51;;;;;;;0.8;0.2;;;;;;;22.88;22.65234;937.1551;;;;
2022/02/20 13:08:20;;;;;;;0.5;0.3;;;;;;;20.58;24.37012;937.1677;;;;
2022/02/20 13:10:45;;;;;;;0.1;0.1;;;;;;;22.32;23.04688;937.0903;;;;
2022/02/20 13:13:11;;;;;;;0.1;0.1;;;;;;;23.29;22.00391;937.0103;;;;
2022/02/20 13:15:44;;;;;;;0.2;0.2;;;;;;;24.02;22.06348;937.0914;;;;
2022/02/20 13:18:13;;;;;;;0.2;0.2;;;;;;;22.14;22.61523;937.0302;;;;
2022/02/20 13:20:38;;;;;;;0.9;0.2;;;;;;;22.91;22.05566;937.1203;;;;
2022/02/20 13:23:03;;;;;;;0.3;0.2;;;;;;;22.2;22.92285;936.9347;;;;
2022/02/20 13:25:37;;;;;;;0.7;0;;;;;;;19.88;24.96094;937.1064;;;;
2022/02/20 13:28:02;;;;;;;2.6;0.3;;;;;;;19.68;25.25293;936.9799;;;;
2022/02/20 13:30:35;;;;;;;0.6;0.2;;;;;;;19.43;26.98633;937.1074;;;;
2022/02/20 13:33:04;;;;;;;0.4;0.2;;;;;;;19.23;26.25195;937.0776;;;;
2022/02/20 13:35:34;;;;;;;0.6;0.1;;;;;;;17.57;28.16113;937.1793;;;;
2022/02/20 13:37:59;;;;;;;0.9;0.2;;;;;;;17.19;28.18262;937.1656;;;;
2022/02/20 13:40:36;;;;;;;0.2;0.1;;;;;;;18.4;28.2959;936.9586;;;;
2022/02/20 13:42:58;;;;;;;0.8;0.1;;;;;;;18.39;27.16699;936.8879;;;;
2022/02/20 13:45:25;;;;;;;0.3;0.2;;;;;;;18.6;27.28516;936.8947;;;;
2022/02/20 13:47:50;;;;;;;0.4;0.4;;;;;;;19.73;26.57324;936.8484;;;;
2022/02/20 13:50:25;;;;;;;1.4;0.5;;;;;;;20.62;25.41211;936.7079;;;;
2022/02/20 13:52:52;;;;;;;0.3;0.3;;;;;;;21.2;23.83105;936.5786;;;;
2022/02/20 13:55:27;;;;;;;0.2;0.2;;;;;;;21.25;23.59961;936.4851;;;;
2022/02/20 13:57:51;;;;;;;1.8;0.4;;;;;;;17.9;26.8584;936.4938;;;;
2022/02/20 14:00:17;;;;;;;2.1;0.6;;;;;;;19.62;26.28711;936.517;;;;
2022/02/20 14:02:46;;;;;;;0.4;0.3;;;;;;;19.51;26.16406;936.6853;;;;
2022/02/20 14:05:19;;;;;;;0.4;0.2;;;;;;;19.75;26.2373;936.7737;;;;
2022/02/20 14:07:43;;;;;;;2.3;1.6;;;;;;;19.82;25.98438;936.6763;;;;
2022/02/20 14:10:16;;;;;;;0.1;0.1;;;;;;;19.7;25.63867;936.6103;;;;
2022/02/20 14:12:45;;;;;;;1.3;1.2;;;;;;;19.2;26.34375;936.5985;;;;
2022/02/20 14:15:14;;;;;;;0.6;0.4;;;;;;;17.62;29.5332;936.5213;;;;
2022/02/20 14:17:39;;;;;;;2.8;2.6;;;;;;;18.47;28.28809;936.435;;;;
2022/02/20 14:20:04;;;;;;;2.9;1.7;;;;;;;17.77;28.4873;936.3077;;;;
2022/02/20 14:22:30;;;;;;;1.5;0.6;;;;;;;17.94;29.00879;936.3738;;;;
2022/02/20 14:24:55;;;;;;;0.2;0.2;;;;;;;17.61;28.95313;936.3128;;;;
2022/02/20 14:27:21;;;;;;;1.9;0.6;;;;;;;17.76;28.3125;936.3474;;;;
2022/02/20 14:29:46;;;;;;;0.1;0.1;;;;;;;17.43;29.12598;936.3424;;;;
2022/02/20 14:32:16;;;;;;;0.5;0.3;;;;;;;17.47;28.82715;936.282;;;;
2022/02/20 14:34:43;;;;;;;0.2;0.2;;;;;;;16.72;29.75098;936.3189;;;;
2022/02/20 14:37:08;;;;;;;0.4;0.2;;;;;;;15.81;30.59082;936.2294;;;;
2022/02/20 14:39:37;;;;;;;0.4;0.2;;;;;;;15.58;31.48633;936.0972;;;;
2022/02/20 14:42:02;;;;;;;4;0.9;;;;;;;15.34;32.13965;936.0686;;;;
2022/02/20 14:44:32;;;;;;;0.8;0.3;;;;;;;14.42;32.71777;935.9728;;;;
2022/02/20 14:47:01;;;;;;;2.9;0.3;;;;;;;14.46;33.22656;935.8654;;;;
2022/02/20 14:49:26;;;;;;;1;0.4;;;;;;;14.64;33.10254;935.8959;;;;
2022/02/20 14:51:55;;;;;;;0.2;0.2;;;;;;;14.57;33.48926;935.9517;;;;
2022/02/20 14:54:20;;;;;;;0.5;0.5;;;;;;;14.44;33.0752;935.9113;;;;
2022/02/20 14:56:49;;;;;;;0.6;0.2;;;;;;;14.58;33.00586;935.9828;;;;
2022/02/20 14:59:16;;;;;;;0.4;0.3;;;;;;;15.21;33.23828;935.9423;;;;
2022/02/20 15:01:39;;;;;;;0.9;0.4;;;;;;;14.93;32.77832;935.9052;;;;
2022/02/20 15:04:09;;;;;;;0.7;0.6;;;;;;;14.58;33.09766;935.7689;;;;
2022/02/20 15:06:39;;;;;;;1.1;0.6;;;;;;;14.64;33.2627;935.8512;;;;
2022/02/20 15:09:10;;;;;;;0.2;0.2;;;;;;;14.29;33.49023;935.8055;;;;
2022/02/20 15:11:42;;;;;;;1.6;0.4;;;;;;;14.35;33.97949;935.801;;;;
2022/02/20 15:14:05;;;;;;;0.9;0.6;;;;;;;14.62;34.54199;935.7335;;;;
2022/02/20 15:16:43;;;;;;;1.1;0.9;;;;;;;14.49;34.99121;935.725;;;;
2022/02/20 15:19:09;;;;;;;0.6;0.5;;;;;;;14.33;34.85254;935.6689;;;;
2022/02/20 15:21:38;;;;;;;5.7;0.5;;;;;;;14.4;34.16699;935.6578;;;;
2022/02/20 15:24:03;;;;;;;1.7;0.5;;;;;;;13.9;35.24316;935.7177;;;;
2022/02/20 15:26:28;;;;;;;1.3;0.6;;;;;;;13.87;35.96582;935.7307;;;;
2022/02/20 15:28:59;;;;;;;1.4;0.6;;;;;;;14.21;35.16504;935.7009;;;;
2022/02/20 15:31:27;;;;;;;1;0.8;;;;;;;14.54;35.57129;935.6515;;;;
2022/02/20 15:34:02;;;;;;;4.1;1.4;;;;;;;14.43;35.08008;935.675;;;;
2022/02/20 15:36:28;;;;;;;1.6;0.7;;;;;;;14.08;34.94824;935.6021;;;;
2022/02/20 15:38:54;;;;;;;1.6;0.9;;;;;;;13.95;35.12109;935.546;;;;
2022/02/20 15:41:18;;;;;;;1.2;0.8;;;;;;;14.12;36.08008;935.5335;;;;
2022/02/20 15:43:46;;;;;;;0.6;0.6;;;;;;;14.21;36.48926;935.5568;;;;
2022/02/20 15:46:11;;;;;;;4.2;0.9;;;;;;;13.8;36.04102;935.5044;;;;
2022/02/20 15:48:39;;;;;;;1.4;1.2;;;;;;;14.08;36.55957;935.4947;;;;
2022/02/20 15:51:05;;;;;;;1.8;1.2;;;;;;;14.12;35.57324;935.4055;;;;
2022/02/20 15:53:36;;;;;;;2.6;1.4;;;;;;;13.55;36.06738;935.3898;;;;
2022/02/20 15:55:59;;;;;;;2.6;1.1;;;;;;;13.28;38.65234;935.3641;;;;
2022/02/20 15:58:26;;;;;;;1.8;1.4;;;;;;;12.89;39.73242;935.445;;;;
2022/02/20 16:00:51;;;;;;;1.9;1.3;;;;;;;12.97;39.33691;935.5413;;;;
2022/02/20 16:03:20;;;;;;;2.5;1.1;;;;;;;12.96;40.41504;935.5109;;;;
2022/02/20 16:05:53;;;;;;;2.7;1.1;;;;;;;12.84;41.11621;935.4444;;;;
2022/02/20 16:08:22;;;;;;;3;1.6;;;;;;;12.77;41.62598;935.4059;;;;
2022/02/20 16:10:48;;;;;;;5.7;2.6;;;;;;;12.94;40.73535;935.3967;;;;
2022/02/20 16:13:12;;;;;;;11.3;4.7;;;;;;;12.86;41.02539;935.3531;;;;
2022/02/20 16:15:39;;;;;;;1.6;1;;;;;;;12.56;41.98438;935.2809;;;;
2022/02/20 16:18:08;;;;;;;3.1;1.9;;;;;;;12.11;43.50977;935.1489;;;;
2022/02/20 16:20:34;;;;;;;9.1;3.9;;;;;;;12.19;43.18555;935.1225;;;;
2022/02/20 16:22:59;;;;;;;8.1;2.3;;;;;;;12.24;42.84668;935.1339;;;;
2022/02/20 16:25:27;;;;;;;3.6;2.2;;;;;;;12.3;41.95801;935.073;;;;
2022/02/20 16:28:00;;;;;;;2.4;1.5;;;;;;;12.31;42.55566;935.0969;;;;
2022/02/20 16:30:35;;;;;;;3.5;2.6;;;;;;;12.18;43.75879;935.1192;;;;
2022/02/20 16:32:58;;;;;;;8.5;5.8;;;;;;;11.78;44.83984;935.0798;;;;
2022/02/20 16:35:30;;;;;;;5.5;2.6;;;;;;;11.83;45.37207;935.1258;;;;
2022/02/20 16:37:55;;;;;;;8.6;5.1;;;;;;;11.71;45.65625;935.1269;;;;
2022/02/20 16:40:29;;;;;;;6.7;4.6;;;;;;;11.7;45.81641;935.15;;;;
2022/02/20 16:42:51;;;;;;;6.5;3.9;;;;;;;11.65;45.92578;935.201;;;;
2022/02/20 16:45:23;;;;;;;6.7;3.6;;;;;;;11.49;46.41113;935.1512;;;;
2022/02/20 16:47:48;;;;;;;3;1.7;;;;;;;11.13;45.82422;935.1732;;;;
2022/02/20 16:50:19;;;;;;;2.8;1.9;;;;;;;11.09;45.76367;935.115;;;;
2022/02/20 16:52:45;;;;;;;3.9;2.2;;;;;;;11;46.85156;935.1989;;;;
2022/02/20 16:55:10;;;;;;;12.1;3.5;;;;;;;11.07;47.33789;935.2361;;;;
2022/02/20 16:57:34;;;;;;;6;4.8;;;;;;;11.18;46.44629;935.1694;;;;
2022/02/20 17:00:00;;;;;;;8.1;5.1;;;;;;;11.15;45.96387;935.2131;;;;
2022/02/20 17:02:31;;;;;;;8.9;6.6;;;;;;;10.74;47.39355;935.1922;;;;
2022/02/20 17:05:04;;;;;;;8;3.9;;;;;;;10.85;47.04004;935.1555;;;;
2022/02/20 17:07:31;;;;;;;5.7;3.7;;;;;;;11.01;46.63379;935.1997;;;;
2022/02/20 17:10:00;;;;;;;5.3;3.9;;;;;;;10.94;47.02734;935.2848;;;;
2022/02/20 17:12:25;;;;;;;6.8;3.3;;;;;;;10.96;46.7666;935.2784;;;;
2022/02/20 17:14:56;;;;;;;8.8;4;;;;;;;11.08;47.67188;935.2233;;;;
2022/02/20 17:17:27;;;;;;;8.3;4.8;;;;;;;10.88;47.70605;934.9684;;;;
2022/02/20 17:19:57;;;;;;;4.8;2.9;;;;;;;10.18;49.31738;934.9108;;;;
2022/02/20 17:22:22;;;;;;;19.3;11;;;;;;;10.16;50.30664;935.0586;;;;
2022/02/20 17:24:53;;;;;;;12;6.6;;;;;;;9.95;51.38867;934.9235;;;;
2022/02/20 17:27:18;;;;;;;3.6;2.8;;;;;;;9.64;50.48633;934.8511;;;;
2022/02/20 17:29:48;;;;;;;5.6;3.5;;;;;;;9.59;50.93652;935.0278;;;;
2022/02/20 17:32:16;;;;;;;7.5;4.6;;;;;;;9.88;50.63965;934.9167;;;;
2022/02/20 17:34:47;;;;;;;14.7;9.6;;;;;;;10.04;50.35156;934.9752;;;;
2022/02/20 17:37:12;;;;;;;3.8;2.8;;;;;;;9.78;50.14941;935.019;;;;
2022/02/20 17:39:43;;;;;;;9.1;6.2;;;;;;;10.02;50.52051;934.9791;;;;
2022/02/20 17:42:13;;;;;;;5.6;3.7;;;;;;;10.17;49.7832;935.0261;;;;
2022/02/20 17:44:44;;;;;;;5.2;3.9;;;;;;;10.32;49.2998;934.9487;;;;
2022/02/20 17:47:09;;;;;;;39.8;24.3;;;;;;;10.18;48.66699;934.7381;;;;
2022/02/20 17:49:37;;;;;;;26.1;16.1;;;;;;;10.1;48.27051;934.7568;;;;
2022/02/20 17:52:02;;;;;;;26.1;16.8;;;;;;;10.09;48.87305;934.6899;;;;
2022/02/20 17:54:30;;;;;;;9.9;7.6;;;;;;;10.23;49.6084;934.6682;;;;
2022/02/20 17:56:55;;;;;;;7.6;4.8;;;;;;;10.31;49.56055;934.5993;;;;
2022/02/20 17:59:22;;;;;;;7.9;3.8;;;;;;;10.45;49.1543;934.6941;;;;
2022/02/20 18:01:51;;;;;;;5.5;2.9;;;;;;;10.37;49.21387;934.6616;;;;
2022/02/20 18:04:19;;;;;;;2.9;2.1;;;;;;;10.36;49.93164;934.6321;;;;
2022/02/20 18:06:45;;;;;;;8.1;3.4;;;;;;;10.18;50.70801;934.5328;;;;
2022/02/20 18:09:16;;;;;;;12.1;5.7;;;;;;;10.24;49.69043;934.5942;;;;
2022/02/20 18:11:48;;;;;;;2.7;1.5;;;;;;;9.89;48.38379;934.5939;;;;
2022/02/20 18:14:18;;;;;;;2.2;1.6;;;;;;;9.82;49.40234;934.4956;;;;
2022/02/20 18:16:56;;;;;;;1.8;1.6;;;;;;;9.86;49.33887;934.4633;;;;
2022/02/20 18:19:29;;;;;;;2.3;1.9;;;;;;;9.88;49.5791;934.4006;;;;
2022/02/20 18:21:57;;;;;;;2.1;1.7;;;;;;;9.94;49.71191;934.2188;;;;
2022/02/20 18:24:27;;;;;;;1.8;1.6;;;;;;;9.78;49.93262;934.193;;;;
2022/02/20 18:26:53;;;;;;;7.4;2.3;;;;;;;9.63;50.70215;934.2079;;;;
2022/02/20 18:29:23;;;;;;;2.9;1.5;;;;;;;9.08;51.47949;934.2389;;;;
2022/02/20 18:31:54;;;;;;;1.7;1.1;;;;;;;9.26;49.99805;934.0929;;;;
2022/02/20 18:34:26;;;;;;;1.2;1.1;;;;;;;9.39;49.89844;934.1105;;;;
2022/02/20 18:36:52;;;;;;;2;1.2;;;;;;;9.34;49.99512;934.0799;;;;
2022/02/20 18:39:23;;;;;;;1.9;1.2;;;;;;;9.4;50.2998;934.0017;;;;
2022/02/20 18:41:52;;;;;;;1.5;1.3;;;;;;;9.45;50.71582;934.0842;;;;
2022/02/20 18:44:17;;;;;;;1.6;1.3;;;;;;;9.29;51.31055;934.0287;;;;
2022/02/20 18:46:44;;;;;;;3.6;1.2;;;;;;;9.13;50.8252;933.9598;;;;
2022/02/20 18:49:09;;;;;;;1.4;1.2;;;;;;;9.26;50.58984;933.868;;;;
2022/02/20 18:51:39;;;;;;;1.9;1.3;;;;;;;9.35;49.83789;933.8162;;;;
2022/02/20 18:54:05;;;;;;;1.6;1.3;;;;;;;9.25;50.78125;933.8695;;;;
2022/02/20 18:56:33;;;;;;;3.7;2.7;;;;;;;9.02;51.9502;933.8311;;;;
2022/02/20 18:58:58;;;;;;;1.5;1.4;;;;;;;8.72;51.44824;933.5208;;;;
2022/02/20 19:01:32;;;;;;;1.9;1.2;;;;;;;8.51;52.19531;933.6614;;;;
2022/02/20 19:04:01;;;;;;;3.2;1.8;;;;;;;8.63;52.6084;933.7184;;;;
2022/02/20 19:06:26;;;;;;;53;24.8;;;;;;;8.54;53.87012;933.795;;;;
2022/02/20 19:08:55;;;;;;;1.4;1.2;;;;;;;8.38;51.72461;933.59;;;;
2022/02/20 19:11:21;;;;;;;1.3;1.2;;;;;;;8.58;50.98828;933.7731;;;;
2022/02/20 19:13:51;;;;;;;2.4;1.7;;;;;;;8.27;54.1084;933.8139;;;;
2022/02/20 19:16:21;;;;;;;3.9;2.9;;;;;;;8.56;53.84863;933.7483;;;;
2022/02/20 19:18:48;;;;;;;12.2;7.4;;;;;;;8.44;53.78906;933.9075;;;;
2022/02/20 19:21:24;;;;;;;1.2;1;;;;;;;8.2;53.13379;933.6566;;;;
2022/02/20 19:23:49;;;;;;;1.9;1.5;;;;;;;8.24;53.97949;933.8175;;;;
2022/02/20 19:26:15;;;;;;;3.7;2.3;;;;;;;7.89;54.99121;933.9327;;;;
2022/02/20 19:28:49;;;;;;;2.2;1.7;;;;;;;8.06;53.45703;933.6202;;;;
2022/02/20 19:31:24;;;;;;;9.4;5.5;;;;;;;7.99;54.81055;933.8816;;;;
2022/02/20 19:33:52;;;;;;;3.8;2.4;;;;;;;8.02;55.04102;933.8607;;;;
2022/02/20 19:36:23;;;;;;;2.3;1.8;;;;;;;7.87;54.41016;933.6256;;;;
2022/02/20 19:38:56;;;;;;;3.8;2.3;;;;;;;7.98;54.5498;933.6135;;;;
2022/02/20 19:41:26;;;;;;;4.5;2.3;;;;;;;8.07;54.77637;933.6799;;;;
2022/02/20 19:43:58;;;;;;;5.2;2.7;;;;;;;8.15;55.03418;933.6378;;;;
2022/02/20 19:46:23;;;;;;;6.3;2.3;;;;;;;7.68;56.23438;933.6278;;;;
2022/02/20 19:48:51;;;;;;;2.8;1.9;;;;;;;7.95;53.76172;933.5528;;;;
2022/02/20 19:51:16;;;;;;;7.4;4;;;;;;;7.93;55.98438;933.4139;;;;
2022/02/20 19:53:41;;;;;;;3.6;2.4;;;;;;;8.01;54.96191;933.4436;;;;
2022/02/20 19:56:12;;;;;;;9.5;5.5;;;;;;;7.62;56.4541;933.5432;;;;
2022/02/20 19:58:41;;;;;;;5.7;4;;;;;;;7.8;55.68359;933.4161;;;;
2022/02/20 20:01:06;;;;;;;1.3;1.2;;;;;;;7.93;53.35059;933.318;;;;
2022/02/20 20:03:31;;;;;;;2.2;1.4;;;;;;;7.98;53.5957;933.3376;;;;
2022/02/20 20:05:56;;;;;;;2.1;1.5;;;;;;;8.09;53.7002;933.2375;;;;
2022/02/20 20:08:24;;;;;;;5.2;2.6;;;;;;;8.22;54.29395;933.2947;;;;
2022/02/20 20:10:49;;;;;;;9.7;6.6;;;;;;;8.22;54.35254;933.1725;;;;
2022/02/20 20:13:20;;;;;;;0.9;0.8;;;;;;;8.08;53.67578;933.2169;;;;
2022/02/20 20:15:46;;;;;;;1.6;1.1;;;;;;;8.02;54.26953;933.2447;;;;
2022/02/20 20:18:14;;;;;;;4.6;3.3;;;;;;;7.89;55.51367;933.2249;;;;
2022/02/20 20:20:51;;;;;;;4.4;2.7;;;;;;;7.85;55.51953;933.1364;;;;
2022/02/20 20:23:21;;;;;;;2.2;1.7;;;;;;;7.71;55.07129;933.1884;;;;
2022/02/20 20:25:56;;;;;;;4.4;2.5;;;;;;;7.63;55.98926;933.17;;;;
2022/02/20 20:28:23;;;;;;;4.6;2.4;;;;;;;7.66;56.35547;933.1473;;;;
2022/02/20 20:30:53;;;;;;;2.6;1.9;;;;;;;7.56;55.85547;933.0579;;;;
2022/02/20 20:33:25;;;;;;;2;1.5;;;;;;;7.45;55.46777;933.0558;;;;
2022/02/20 20:35:53;;;;;;;1.3;1.2;;;;;;;7.54;55.07031;933.0117;;;;
2022/02/20 20:38:18;;;;;;;1.5;1.4;;;;;;;7.5;54.97559;933.035;;;;
2022/02/20 20:40:50;;;;;;;2.1;1.9;;;;;;;7.42;56.88086;933.0341;;;;
2022/02/20 20:43:22;;;;;;;1.5;1.4;;;;;;;7.51;55.75879;932.9695;;;;
2022/02/20 20:45:59;;;;;;;3.2;2;;;;;;;7.35;56.23633;933.0598;;;;
2022/02/20 20:48:24;;;;;;;3.4;1.8;;;;;;;7.35;56.06641;933.0193;;;;
2022/02/20 20:50:55;;;;;;;4.1;2;;;;;;;7.3;56.46777;932.8731;;;;
2022/02/20 20:53:24;;;;;;;1.9;1.7;;;;;;;7.2;56.28418;932.9648;;;;
2022/02/20 20:55:50;;;;;;;4.1;2.3;;;;;;;7.3;56.21875;932.965;;;;
2022/02/20 20:58:19;;;;;;;3.5;2;;;;;;;7.3;56.16211;932.9127;;;;
2022/02/20 21:00:44;;;;;;;2.8;2;;;;;;;7.22;56.57129;932.8586;;;;
2022/02/20 21:03:13;;;;;;;3;2.2;;;;;;;7.35;56.66699;932.9132;;;;
2022/02/20 21:05:46;;;;;;;3.4;2.5;;;;;;;7.2;56.80664;932.8691;;;;
2022/02/20 21:08:10;;;;;;;3.2;2.2;;;;;;;7.04;57.58887;932.8013;;;;
2022/02/20 21:10:35;;;;;;;4.4;2.4;;;;;;;7.11;58.05078;932.772;;;;
2022/02/20 21:13:03;;;;;;;3.8;2.4;;;;;;;7.29;57.44141;932.7581;;;;
2022/02/20 21:15:28;;;;;;;2.4;2.1;;;;;;;7.28;57.12207;932.8569;;;;
2022/02/20 21:17:57;;;;;;;3.4;2.1;;;;;;;7.26;56.92676;932.7617;;;;
2022/02/20 21:20:30;;;;;;;3.1;2.3;;;;;;;7.02;57.13379;932.5944;;;;
2022/02/20 21:22:56;;;;;;;2.6;1.6;;;;;;;6.89;57.5918;932.7941;;;;
2022/02/20 21:25:25;;;;;;;1.7;1.6;;;;;;;6.33;60.12793;932.7847;;;;
2022/02/20 21:27:51;;;;;;;4;1.6;;;;;;;6.71;58.74512;932.6267;;;;
2022/02/20 21:30:21;;;;;;;1.5;1.3;;;;;;;6.67;58.70508;932.6387;;;;
2022/02/20 21:32:50;;;;;;;27.7;14.4;;;;;;;6.55;59.27734;932.7308;;;;
2022/02/20 21:35:28;;;;;;;4.1;2.7;;;;;;;6.67;59.16992;932.6467;;;;
2022/02/20 21:37:57;;;;;;;4.2;2.2;;;;;;;6.85;58.71777;932.5901;;;;
2022/02/20 21:40:23;;;;;;;3.4;2.7;;;;;;;6.86;59.07031;932.5745;;;;
2022/02/20 21:42:51;;;;;;;3.2;2.6;;;;;;;6.88;59.31152;932.57;;;;
2022/02/20 21:45:17;;;;;;;2.3;1.8;;;;;;;6.79;59.23145;932.4989;;;;
2022/02/20 21:47:45;;;;;;;24.1;11.2;;;;;;;6.67;60.31152;932.4727;;;;
2022/02/20 21:50:10;;;;;;;22.5;11.5;;;;;;;6.51;60.62891;932.4772;;;;
2022/02/20 21:52:40;;;;;;;3.8;2.7;;;;;;;6.22;62.56543;932.2367;;;;
2022/02/20 21:55:03;;;;;;;14.6;7.4;;;;;;;6.17;62.26465;932.2325;;;;
2022/02/20 21:57:33;;;;;;;498.5;236.4;;;;;;;6.01;62.70605;932.2829;;;;
2022/02/20 21:59:58;;;;;;;73.6;33.8;;;;;;;5.78;63.45996;932.1255;;;;
2022/02/20 22:02:23;;;;;;;7.1;4.5;;;;;;;5.89;63.10645;932.2227;;;;
2022/02/20 22:04:54;;;;;;;5.6;2.8;;;;;;;5.99;63.00684;932.0025;;;;
2022/02/20 22:07:24;;;;;;;3.8;2.8;;;;;;;6.1;62.45801;932.0804;;;;
2022/02/20 22:09:49;;;;;;;5;3.3;;;;;;;6.19;62.57422;932.1396;;;;
2022/02/20 22:12:25;;;;;;;6.5;3.6;;;;;;;6.31;61.99023;932.1052;;;;
2022/02/20 22:14:54;;;;;;;9.5;5.6;;;;;;;6.19;64.1875;931.96;;;;
2022/02/20 22:17:24;;;;;;;18.3;10.2;;;;;;;6.19;63.88477;932.0922;;;;
2022/02/20 22:19:55;;;;;;;16.5;13.3;;;;;;;5.99;63.74023;932.0648;;;;
2022/02/20 22:22:21;;;;;;;53.9;45.2;;;;;;;6.04;63.26172;932.0305;;;;
2022/02/20 22:24:52;;;;;;;72.1;53.7;;;;;;;6.21;62.92578;932.0129;;;;
2022/02/20 22:27:22;;;;;;;18.8;13.3;;;;;;;6.17;62.93164;932.0728;;;;
2022/02/20 22:29:56;;;;;;;126;57.2;;;;;;;6.22;63.60645;931.915;;;;
2022/02/20 22:32:29;;;;;;;21.8;12.6;;;;;;;5.89;65.03809;931.8655;;;;
2022/02/20 22:34:52;;;;;;;234.2;94.4;;;;;;;5.76;65.26465;931.9419;;;;
2022/02/20 22:37:21;;;;;;;31.3;17.8;;;;;;;5.75;65.01465;932.0342;;;;
2022/02/20 22:39:46;;;;;;;8.2;4.9;;;;;;;5.61;65.32031;932.0112;;;;
2022/02/20 22:42:11;;;;;;;82.1;41.6;;;;;;;5.71;64.98535;931.9521;;;;
2022/02/20 22:44:40;;;;;;;5.8;3.8;;;;;;;5.85;64.2168;931.8411;;;;
2022/02/20 22:47:05;;;;;;;86.6;50.1;;;;;;;6.04;63.33105;931.7476;;;;
2022/02/20 22:49:35;;;;;;;5.8;3.7;;;;;;;5.03;66.82227;931.7661;;;;
2022/02/20 22:52:01;;;;;;;3.8;2.6;;;;;;;5.07;66.63672;931.6895;;;;
2022/02/20 22:54:25;;;;;;;4.8;4.2;;;;;;;5.56;65.26953;931.5956;;;;
2022/02/20 22:56:54;;;;;;;4.4;3.3;;;;;;;6.05;63.69434;931.5201;;;;
2022/02/20 22:59:26;;;;;;;8.6;5.1;;;;;;;6.13;63.9873;931.5189;;;;
2022/02/20 23:01:53;;;;;;;5.5;4.7;;;;;;;6.07;64.39746;931.5133;;;;
2022/02/20 23:04:23;;;;;;;6.5;5.1;;;;;;;6.1;65.10254;931.479;;;;
2022/02/20 23:06:48;;;;;;;8.9;5.3;;;;;;;6.23;64.4541;931.4297;;;;
2022/02/20 23:09:16;;;;;;;7.8;5.4;;;;;;;6.17;64.75;931.457;;;;
2022/02/20 23:11:45;;;;;;;7.7;5.4;;;;;;;6.23;64.84961;931.4487;;;;
2022/02/20 23:14:06;;;;;;;7.7;5.8;;;;;;;6.4;63.88086;931.327;;;;
2022/02/20 23:16:36;;;;;;;8.3;5.8;;;;;;;6.22;63.73047;931.2731;;;;
2022/02/20 23:18:59;;;;;;;8.4;5.7;;;;;;;6.19;63.97461;931.368;;;;
2022/02/20 23:21:27;;;;;;;7.7;4.8;;;;;;;6.06;63.93164;931.2761;;;;
2022/02/20 23:23:52;;;;;;;9.3;6.8;;;;;;;5.76;64.80176;931.1774;;;;
2022/02/20 23:26:17;;;;;;;40.9;30;;;;;;;6.02;64.11816;931.2667;;;;
2022/02/20 23:28:44;;;;;;;8.4;5.1;;;;;;;5.67;65.14941;931.2137;;;;
2022/02/20 23:31:10;;;;;;;7.3;5.3;;;;;;;5.76;65.17383;931.1141;;;;
2022/02/20 23:33:37;;;;;;;9;5.8;;;;;;;5.96;65.72363;930.8926;;;;
2022/02/20 23:36:02;;;;;;;10.5;6.8;;;;;;;5.67;66.05176;930.9327;;;;
2022/02/20 23:38:30;;;;;;;10.2;5.9;;;;;;;5.82;64.95801;930.9551;;;;
2022/02/20 23:40:55;;;;;;;14;11.2;;;;;;;6.04;64.3916;930.9771;;;;
2022/02/20 23:43:21;;;;;;;19.7;17.3;;;;;;;6.09;64.37793;930.7849;;;;
2022/02/20 23:45:47;;;;;;;11.3;7.8;;;;;;;5.98;64.25977;930.8053;;;;
2022/02/20 23:48:14;;;;;;;7.9;5;;;;;;;5.92;64.19336;930.6844;;;;
2022/02/20 23:50:39;;;;;;;6.7;4.5;;;;;;;5.92;63.91113;930.7246;;;;
2022/02/20 23:53:08;;;;;;;7.4;5;;;;;;;5.99;64.45313;930.6648;;;;
2022/02/20 23:55:33;;;;;;;8.8;5.2;;;;;;;6.16;65.06543;930.4619;;;;
2022/02/20 23:58:00;;;;;;;8.7;5;;;;;;;6.14;64.12402;930.3936;;;;
